createdAt,value
2022-08-24T00:02:05.755Z,0.60
2022-08-24T00:04:34.750Z,0.40
2022-08-24T00:07:04.247Z,0.60
2022-08-24T00:09:33.147Z,0.60
2022-08-24T00:12:02.136Z,0.60
2022-08-24T00:14:31.455Z,0.60
2022-08-24T00:17:00.675Z,0.60
2022-08-24T00:19:29.446Z,0.70
2022-08-24T00:21:57.242Z,0.80
2022-08-24T00:24:24.969Z,0.70
2022-08-24T00:26:56.384Z,0.60
2022-08-24T00:29:24.938Z,0.60
2022-08-24T00:31:52.859Z,0.80
2022-08-24T00:34:20.949Z,0.50
2022-08-24T00:36:48.854Z,0.50
2022-08-24T00:39:16.974Z,0.60
2022-08-24T00:41:48.921Z,0.40
2022-08-24T00:44:19.151Z,0.60
2022-08-24T00:47:18.974Z,0.90
2022-08-24T00:50:19.855Z,1.10
2022-08-24T00:52:59.164Z,0.90
2022-08-24T00:55:34.084Z,0.70
2022-08-24T00:58:14.528Z,1.00
2022-08-24T01:00:55.087Z,0.80
2022-08-24T01:03:24.285Z,1.10
2022-08-24T01:05:53.000Z,1.10
2022-08-24T01:08:23.341Z,1.30
2022-08-24T01:10:58.961Z,0.70
2022-08-24T01:13:29.199Z,0.70
2022-08-24T01:16:03.163Z,0.60
2022-08-24T01:21:34.001Z,0.60
2022-08-24T01:24:11.251Z,0.60
2022-08-24T01:26:48.630Z,0.60
2022-08-24T01:29:23.450Z,0.60
2022-08-24T01:31:53.912Z,0.60
2022-08-24T01:34:22.181Z,0.50
2022-08-24T01:36:56.268Z,0.50
2022-08-24T01:39:36.368Z,0.50
2022-08-24T01:42:05.059Z,0.70
2022-08-24T01:44:36.993Z,0.80
2022-08-24T01:47:08.729Z,0.60
2022-08-24T01:49:42.869Z,0.60
2022-08-24T01:52:19.996Z,0.70
2022-08-24T01:54:49.459Z,0.60
2022-08-24T01:57:18.050Z,0.60
2022-08-24T01:59:45.965Z,0.60
2022-08-24T02:02:25.850Z,0.50
2022-08-24T02:04:54.869Z,0.60
2022-08-24T02:07:23.649Z,0.60
2022-08-24T02:09:52.351Z,0.60
2022-08-24T02:12:21.329Z,0.60
2022-08-24T02:14:49.542Z,0.70
2022-08-24T02:17:18.448Z,0.70
2022-08-24T02:19:48.140Z,0.60
2022-08-24T02:22:16.068Z,0.50
2022-08-24T02:24:43.804Z,0.50
2022-08-24T02:27:12.055Z,0.70
2022-08-24T02:29:40.077Z,0.40
2022-08-24T02:32:08.208Z,0.40
2022-08-24T02:34:36.625Z,0.50
2022-08-24T02:37:05.332Z,0.60
2022-08-24T02:39:33.370Z,0.50
2022-08-24T02:42:01.184Z,0.60
2022-08-24T02:44:29.481Z,0.60
2022-08-24T02:46:57.456Z,0.50
2022-08-24T02:49:25.224Z,0.60
2022-08-24T02:51:52.995Z,0.60
2022-08-24T02:54:21.218Z,0.70
2022-08-24T02:56:49.653Z,0.60
2022-08-24T02:59:18.298Z,0.80
2022-08-24T03:01:49.834Z,0.70
2022-08-24T03:04:20.291Z,0.80
2022-08-24T03:06:48.235Z,0.80
2022-08-24T03:09:16.324Z,1.10
2022-08-24T03:11:45.319Z,0.70
2022-08-24T03:14:14.810Z,0.70
2022-08-24T03:16:44.070Z,0.70
2022-08-24T03:19:12.958Z,0.60
2022-08-24T03:21:41.807Z,0.80
2022-08-24T03:24:09.880Z,0.80
2022-08-24T03:26:39.088Z,0.70
2022-08-24T03:29:12.362Z,0.60
2022-08-24T03:31:40.324Z,0.70
2022-08-24T03:34:08.177Z,0.60
2022-08-24T03:36:35.953Z,0.60
2022-08-24T03:39:04.595Z,0.90
2022-08-24T03:41:33.794Z,0.80
2022-08-24T03:44:05.248Z,0.90
2022-08-24T03:46:37.269Z,0.90
2022-08-24T03:49:10.092Z,0.70
2022-08-24T03:51:38.844Z,0.70
2022-08-24T03:54:11.071Z,0.80
2022-08-24T03:56:39.710Z,0.60
2022-08-24T03:59:10.665Z,0.90
2022-08-24T04:01:40.383Z,0.50
2022-08-24T04:04:08.212Z,0.80
2022-08-24T04:06:36.690Z,0.90
2022-08-24T04:09:05.824Z,0.60
2022-08-24T04:11:37.378Z,0.80
2022-08-24T04:14:08.422Z,0.80
2022-08-24T04:16:40.025Z,0.70
2022-08-24T04:19:08.050Z,0.90
2022-08-24T04:21:37.865Z,0.70
2022-08-24T04:24:08.816Z,0.90
2022-08-24T04:26:44.663Z,0.70
2022-08-24T04:29:17.027Z,0.80
2022-08-24T04:31:45.701Z,0.90
2022-08-24T04:34:16.340Z,0.90
2022-08-24T04:36:45.920Z,0.80
2022-08-24T04:39:14.908Z,0.80
2022-08-24T04:41:42.781Z,0.80
2022-08-24T04:44:11.561Z,0.70
2022-08-24T04:46:39.721Z,0.70
2022-08-24T04:49:08.573Z,0.90
2022-08-24T04:51:38.701Z,0.70
2022-08-24T04:54:08.309Z,0.80
2022-08-24T04:56:37.069Z,0.60
2022-08-24T04:59:07.147Z,0.80
2022-08-24T05:01:35.635Z,0.90
2022-08-24T05:04:05.294Z,0.90
2022-08-24T05:06:34.337Z,0.90
2022-08-24T05:09:05.652Z,0.70
2022-08-24T05:11:37.282Z,0.80
2022-08-24T05:14:05.065Z,0.80
2022-08-24T05:16:37.930Z,1.10
2022-08-24T05:19:07.212Z,0.80
2022-08-24T05:21:35.056Z,0.90
2022-08-24T05:24:03.830Z,0.70
2022-08-24T05:26:31.719Z,0.70
2022-08-24T05:29:02.429Z,0.90
2022-08-24T05:31:33.369Z,0.70
2022-08-24T05:34:03.890Z,0.90
2022-08-24T05:36:38.198Z,0.90
2022-08-24T05:39:11.838Z,0.80
2022-08-24T05:41:44.173Z,0.90
2022-08-24T05:44:15.608Z,1.00
2022-08-24T05:46:44.369Z,1.00
2022-08-24T05:49:12.995Z,1.10
2022-08-24T05:51:42.730Z,1.30
2022-08-24T05:54:13.656Z,0.80
2022-08-24T05:56:42.318Z,0.80
2022-08-24T05:59:10.672Z,0.90
2022-08-24T06:01:43.380Z,0.80
2022-08-24T06:04:13.441Z,1.00
2022-08-24T06:06:42.442Z,1.10
2022-08-24T06:09:12.693Z,1.00
2022-08-24T06:11:42.210Z,1.10
2022-08-24T06:14:14.190Z,0.80
2022-08-24T06:16:45.325Z,1.00
2022-08-24T06:19:18.208Z,1.00
2022-08-24T06:21:51.413Z,0.90
2022-08-24T06:24:41.598Z,1.20
2022-08-24T06:27:21.690Z,1.00
2022-08-24T06:29:55.753Z,1.20
2022-08-24T06:34:56.583Z,1.80
2022-08-24T06:37:28.759Z,1.10
2022-08-24T06:40:00.048Z,1.10
2022-08-24T06:42:31.657Z,0.90
2022-08-24T06:44:59.748Z,0.90
2022-08-24T06:47:27.527Z,1.00
2022-08-24T06:49:59.267Z,1.00
2022-08-24T06:52:27.062Z,1.00
2022-08-24T06:54:55.049Z,0.90
2022-08-24T06:57:23.137Z,1.20
2022-08-24T06:59:51.532Z,1.20
2022-08-24T07:02:19.594Z,0.90
2022-08-24T07:04:47.832Z,0.90
2022-08-24T07:07:17.336Z,1.00
2022-08-24T07:09:45.829Z,1.80
2022-08-24T07:12:13.619Z,1.10
2022-08-24T07:14:41.365Z,0.90
2022-08-24T07:17:09.220Z,1.00
2022-08-24T07:19:37.975Z,1.10
2022-08-24T07:22:05.680Z,1.20
2022-08-24T07:24:33.954Z,1.20
2022-08-24T07:27:01.722Z,0.90
2022-08-24T07:29:52.816Z,1.00
2022-08-24T07:32:17.356Z,1.10
2022-08-24T07:34:45.098Z,0.90
2022-08-24T07:37:13.001Z,0.90
2022-08-24T07:39:40.979Z,0.90
2022-08-24T07:42:13.313Z,0.80
2022-08-24T07:44:43.865Z,1.30
2022-08-24T07:47:36.623Z,0.80
2022-08-24T07:49:59.944Z,0.80
2022-08-24T07:52:28.077Z,1.00
2022-08-24T07:54:56.261Z,1.10
2022-08-24T07:57:25.060Z,1.10
2022-08-24T07:59:53.313Z,1.00
2022-08-24T08:02:21.201Z,0.80
2022-08-24T08:04:49.056Z,1.00
2022-08-24T08:07:17.653Z,1.10
2022-08-24T08:09:46.740Z,1.00
2022-08-24T08:12:14.869Z,1.00
2022-08-24T08:14:42.593Z,1.00
2022-08-24T08:17:10.377Z,1.00
2022-08-24T08:19:38.149Z,0.80
2022-08-24T08:22:24.833Z,0.90
2022-08-24T08:24:52.670Z,1.10
2022-08-24T08:27:22.227Z,0.60
2022-08-24T08:29:49.936Z,0.70
2022-08-24T08:32:20.136Z,0.90
2022-08-24T08:34:47.949Z,0.80
2022-08-24T08:37:16.364Z,0.80
2022-08-24T08:39:44.683Z,1.40
2022-08-24T08:42:28.125Z,1.20
2022-08-24T08:45:20.255Z,0.60
2022-08-24T08:48:41.025Z,0.90
2022-08-24T08:51:51.297Z,0.90
2022-08-24T08:54:49.497Z,1.00
2022-08-24T08:57:46.604Z,1.00
2022-08-24T09:00:24.266Z,1.40
2022-08-24T09:03:40.980Z,0.90
2022-08-24T09:07:01.998Z,1.30
2022-08-24T09:09:38.906Z,1.30
2022-08-24T09:12:34.491Z,0.90
2022-08-24T09:15:30.033Z,1.00
2022-08-24T09:18:28.591Z,0.80
2022-08-24T09:21:19.476Z,1.10
2022-08-24T09:24:13.266Z,1.20
2022-08-24T09:27:25.326Z,1.20
2022-08-24T09:30:27.595Z,1.20
2022-08-24T09:33:13.182Z,1.30
2022-08-24T09:36:11.841Z,1.10
2022-08-24T09:39:14.828Z,1.10
2022-08-24T09:41:54.682Z,1.10
2022-08-24T09:45:02.603Z,1.10
2022-08-24T09:48:20.419Z,1.10
2022-08-24T09:51:00.823Z,1.10
2022-08-24T09:53:54.858Z,1.10
2022-08-24T09:56:37.637Z,0.90
2022-08-24T09:59:13.562Z,1.20
2022-08-24T10:02:38.635Z,0.90
2022-08-24T10:05:26.765Z,1.50
2022-08-24T10:08:26.947Z,1.00
2022-08-24T10:11:22.554Z,1.10
2022-08-24T10:14:30.311Z,1.10
2022-08-24T10:17:14.362Z,1.00
2022-08-24T10:20:24.126Z,1.00
2022-08-24T10:23:04.786Z,0.80
2022-08-24T10:25:42.542Z,1.10
2022-08-24T10:28:34.104Z,0.90
2022-08-24T10:31:09.676Z,1.10
2022-08-24T10:34:12.077Z,1.20
2022-08-24T10:37:01.816Z,0.90
2022-08-24T10:40:21.877Z,1.10
2022-08-24T10:43:08.642Z,0.80
2022-08-24T10:45:54.915Z,1.00
2022-08-24T10:48:33.344Z,1.30
2022-08-24T10:51:40.223Z,1.00
2022-08-24T10:54:13.361Z,1.30
2022-08-24T10:57:12.109Z,1.40
2022-08-24T10:59:57.326Z,1.20
2022-08-24T11:02:39.308Z,1.00
2022-08-24T11:05:14.002Z,1.40
2022-08-24T11:08:06.692Z,1.00
2022-08-24T11:10:40.085Z,1.00
2022-08-24T11:13:27.300Z,1.20
2022-08-24T11:16:01.489Z,0.90
2022-08-24T11:18:54.572Z,0.80
2022-08-24T11:24:48.906Z,1.20
2022-08-24T11:27:16.549Z,1.30
2022-08-24T11:29:50.312Z,1.00
2022-08-24T11:32:39.588Z,1.40
2022-08-24T11:35:27.570Z,1.10
2022-08-24T11:38:15.305Z,1.40
2022-08-24T11:40:52.246Z,1.20
2022-08-24T11:43:48.321Z,1.40
2022-08-24T11:46:36.574Z,1.60
2022-08-24T11:49:22.264Z,1.30
2022-08-24T11:52:20.183Z,1.80
2022-08-24T11:55:05.227Z,1.10
2022-08-24T11:58:11.286Z,1.20
2022-08-24T12:01:16.039Z,1.60
2022-08-24T12:04:16.396Z,1.20
2022-08-24T12:07:01.889Z,2.00
2022-08-24T12:09:50.142Z,1.70
2022-08-24T12:13:14.818Z,1.20
2022-08-24T12:15:57.555Z,1.20
2022-08-24T12:19:03.138Z,1.20
2022-08-24T12:21:36.695Z,1.30
2022-08-24T12:24:16.802Z,1.30
2022-08-24T12:26:51.665Z,1.60
2022-08-24T12:29:53.651Z,2.20
2022-08-24T12:32:46.887Z,1.20
2022-08-24T12:35:28.593Z,1.20
2022-08-24T12:38:08.989Z,1.30
2022-08-24T12:40:48.221Z,1.10
2022-08-24T12:43:32.000Z,1.60
2022-08-24T12:46:01.581Z,1.30
2022-08-24T12:48:40.925Z,1.40
2022-08-24T12:52:05.692Z,1.30
2022-08-24T12:54:55.230Z,1.30
2022-08-24T12:57:59.510Z,0.90
2022-08-24T13:00:38.062Z,1.20
2022-08-24T13:03:23.960Z,1.50
2022-08-24T13:06:00.881Z,1.10
2022-08-24T13:08:47.046Z,1.40
2022-08-24T13:11:35.382Z,1.40
2022-08-24T13:14:25.007Z,1.40
2022-08-24T13:16:58.564Z,1.00
2022-08-24T13:19:29.314Z,1.40
2022-08-24T13:22:12.993Z,1.10
2022-08-24T13:25:02.600Z,1.10
2022-08-24T13:27:36.097Z,0.90
2022-08-24T13:30:22.087Z,1.70
2022-08-24T13:33:03.962Z,1.40
2022-08-24T13:35:39.972Z,1.50
2022-08-24T13:38:26.354Z,1.30
2022-08-24T13:41:11.326Z,1.10
2022-08-24T13:44:01.890Z,1.70
2022-08-24T13:47:06.632Z,1.20
2022-08-24T13:50:27.398Z,1.20
2022-08-24T13:53:36.635Z,1.40
2022-08-24T13:56:38.569Z,1.60
2022-08-24T13:59:46.273Z,1.40
2022-08-24T14:02:17.050Z,1.20
2022-08-24T14:05:09.382Z,1.20
2022-08-24T14:08:03.454Z,1.30
2022-08-24T14:10:42.786Z,1.50
2022-08-24T14:13:32.367Z,1.00
2022-08-24T14:16:27.633Z,1.20
2022-08-24T14:19:33.154Z,1.20
2022-08-24T14:22:09.983Z,1.10
2022-08-24T14:24:59.502Z,1.50
2022-08-24T14:27:37.777Z,1.20
2022-08-24T14:30:17.450Z,1.30
2022-08-24T14:33:00.830Z,1.40
2022-08-24T14:35:38.798Z,1.30
2022-08-24T14:38:24.562Z,1.20
2022-08-24T14:41:28.078Z,1.30
2022-08-24T14:44:46.230Z,1.50
2022-08-24T14:47:41.200Z,1.30
2022-08-24T14:50:17.277Z,1.20
2022-08-24T14:53:40.341Z,1.30
2022-08-24T14:56:32.037Z,1.20
2022-08-24T14:59:11.850Z,1.20
2022-08-24T15:01:45.812Z,1.10
2022-08-24T15:04:34.035Z,1.10
2022-08-24T15:07:20.759Z,1.00
2022-08-24T15:09:50.420Z,1.50
2022-08-24T15:12:42.894Z,1.20
2022-08-24T15:15:54.738Z,1.40
2022-08-24T15:18:53.493Z,1.30
2022-08-24T15:21:24.133Z,1.30
2022-08-24T15:24:20.300Z,1.00
2022-08-24T15:27:00.934Z,1.10
2022-08-24T15:29:34.552Z,1.60
2022-08-24T15:32:12.036Z,1.40
2022-08-24T15:34:53.243Z,1.10
2022-08-24T15:37:40.437Z,1.10
2022-08-24T15:40:31.064Z,1.20
2022-08-24T15:43:04.187Z,1.50
2022-08-24T15:45:35.534Z,1.20
2022-08-24T15:48:05.354Z,1.10
2022-08-24T15:50:43.521Z,1.00
2022-08-24T15:53:41.777Z,1.20
2022-08-24T15:56:22.181Z,1.20
2022-08-24T15:58:50.952Z,2.60
2022-08-24T16:01:46.597Z,1.40
2022-08-24T16:04:50.740Z,1.70
2022-08-24T16:07:31.412Z,1.40
2022-08-24T16:10:11.910Z,1.10
2022-08-24T16:12:40.088Z,1.90
2022-08-24T16:15:17.344Z,1.40
2022-08-24T16:17:54.427Z,1.20
2022-08-24T16:20:23.436Z,1.40
2022-08-24T16:23:00.301Z,1.30
2022-08-24T16:25:51.093Z,1.20
2022-08-24T16:28:22.136Z,1.50
2022-08-24T16:31:07.769Z,1.30
2022-08-24T16:33:43.353Z,1.30
2022-08-24T16:36:19.553Z,1.40
2022-08-24T16:38:51.207Z,1.20
2022-08-24T16:41:24.312Z,1.30
2022-08-24T16:43:52.238Z,1.30
2022-08-24T16:46:25.496Z,1.30
2022-08-24T16:48:54.946Z,1.50
2022-08-24T16:51:26.078Z,1.20
2022-08-24T16:53:54.267Z,1.30
2022-08-24T16:56:22.857Z,1.40
2022-08-24T16:58:51.582Z,1.20
2022-08-24T17:01:20.033Z,1.40
2022-08-24T17:03:47.932Z,1.20
2022-08-24T17:06:18.848Z,1.20
2022-08-24T17:08:48.194Z,1.30
2022-08-24T17:11:19.286Z,1.20
2022-08-24T17:13:50.218Z,1.10
2022-08-24T17:16:21.630Z,1.60
2022-08-24T17:18:49.527Z,1.50
2022-08-24T17:21:17.516Z,1.40
2022-08-24T17:23:45.895Z,1.40
2022-08-24T17:26:20.424Z,1.50
2022-08-24T17:28:55.457Z,1.50
2022-08-24T17:31:28.997Z,2.10
2022-08-24T17:36:27.157Z,1.40
2022-08-24T17:39:02.674Z,1.90
2022-08-24T17:41:30.469Z,1.40
2022-08-24T17:43:58.755Z,1.40
2022-08-24T17:46:28.689Z,1.50
2022-08-24T17:48:59.445Z,1.90
2022-08-24T17:51:27.554Z,1.40
2022-08-24T17:53:55.346Z,1.80
2022-08-24T17:56:23.517Z,1.60
2022-08-24T17:59:10.112Z,2.00
2022-08-24T18:01:38.525Z,1.60
2022-08-24T18:04:06.325Z,1.70
2022-08-24T18:06:35.293Z,1.90
2022-08-24T18:09:08.162Z,1.60
2022-08-24T18:11:36.540Z,2.30
2022-08-24T18:14:04.451Z,1.70
2022-08-24T18:16:32.252Z,1.30
2022-08-24T18:19:02.002Z,1.40
2022-08-24T18:21:29.726Z,2.30
2022-08-24T18:23:58.324Z,1.90
2022-08-24T18:26:29.018Z,1.90
2022-08-24T18:29:05.751Z,1.90
2022-08-24T18:31:33.632Z,2.10
2022-08-24T18:34:01.455Z,1.90
2022-08-24T18:36:29.197Z,1.60
2022-08-24T18:38:57.500Z,1.80
2022-08-24T18:41:35.399Z,1.40
2022-08-24T18:44:06.843Z,2.00
2022-08-24T18:46:36.076Z,1.50
2022-08-24T18:49:05.453Z,1.70
2022-08-24T18:51:36.152Z,1.60
2022-08-24T18:54:16.491Z,1.40
2022-08-24T18:56:45.180Z,1.60
2022-08-24T18:59:16.799Z,1.70
2022-08-24T19:02:07.406Z,1.70
2022-08-24T19:04:46.026Z,2.20
2022-08-24T19:07:15.256Z,2.20
2022-08-24T19:09:43.055Z,1.70
2022-08-24T19:12:11.754Z,1.70
2022-08-24T19:14:43.376Z,1.70
2022-08-24T19:17:16.537Z,1.40
2022-08-24T19:19:45.836Z,1.40
2022-08-24T19:22:16.282Z,1.60
2022-08-24T19:24:45.370Z,1.40
2022-08-24T19:27:13.332Z,1.40
2022-08-24T19:29:56.787Z,2.20
2022-08-24T19:32:30.073Z,9.90
2022-08-24T19:34:59.241Z,2.40
2022-08-24T19:37:27.705Z,3.00
2022-08-24T19:39:56.024Z,2.10
2022-08-24T19:42:25.529Z,3.30
2022-08-24T19:45:13.007Z,1.60
2022-08-24T19:47:40.817Z,2.10
2022-08-24T19:50:09.692Z,2.00
2022-08-24T19:52:40.755Z,2.10
2022-08-24T19:55:10.224Z,1.90
2022-08-24T19:57:47.200Z,1.70
2022-08-24T20:00:29.269Z,1.60
2022-08-24T20:02:58.514Z,1.60
2022-08-24T20:05:28.560Z,1.50
2022-08-24T20:07:59.239Z,1.60
2022-08-24T20:10:27.513Z,1.80
2022-08-24T20:12:55.521Z,1.50
2022-08-24T20:15:25.065Z,1.80
2022-08-24T20:17:57.117Z,1.60
2022-08-24T20:20:28.677Z,1.60
2022-08-24T20:22:57.757Z,1.80
2022-08-24T20:25:25.475Z,1.50
2022-08-24T20:28:12.493Z,1.90
2022-08-24T20:30:44.426Z,1.60
2022-08-24T20:33:21.120Z,1.60
2022-08-24T20:35:49.885Z,1.40
2022-08-24T20:38:21.331Z,1.50
2022-08-24T20:40:50.780Z,1.50
2022-08-24T20:43:19.538Z,1.90
2022-08-24T20:45:52.212Z,1.60
2022-08-24T20:48:31.067Z,1.50
2022-08-24T20:51:01.294Z,1.40
2022-08-24T20:53:29.534Z,1.50
2022-08-24T20:56:01.241Z,1.70
2022-08-24T20:58:29.353Z,1.70
2022-08-24T21:00:57.149Z,1.50
2022-08-24T21:03:24.913Z,1.40
2022-08-24T21:05:52.829Z,1.90
2022-08-24T21:08:20.845Z,1.70
2022-08-24T21:10:48.589Z,1.40
2022-08-24T21:13:16.656Z,1.50
2022-08-24T21:15:45.863Z,1.80
2022-08-24T21:18:14.672Z,1.60
2022-08-24T21:20:46.085Z,1.60
2022-08-24T21:23:34.584Z,1.90
2022-08-24T21:26:06.316Z,1.40
2022-08-24T21:28:36.491Z,2.00
2022-08-24T21:31:06.358Z,1.50
2022-08-24T21:33:53.830Z,1.40
2022-08-24T21:36:25.455Z,1.70
2022-08-24T21:38:54.773Z,1.50
2022-08-24T21:41:23.458Z,2.20
2022-08-24T21:43:52.078Z,1.70
2022-08-24T21:46:22.345Z,1.90
2022-08-24T21:48:50.212Z,1.60
2022-08-24T21:51:17.923Z,1.60
2022-08-24T21:53:46.645Z,1.60
2022-08-24T21:56:23.572Z,2.40
2022-08-24T21:58:53.237Z,2.10
2022-08-24T22:01:21.321Z,2.00
2022-08-24T22:03:49.496Z,3.10
2022-08-24T22:06:17.385Z,4.00
2022-08-24T22:08:45.164Z,2.50
2022-08-24T22:11:17.822Z,4.60
2022-08-24T22:13:47.102Z,2.90
2022-08-24T22:16:14.896Z,4.30
2022-08-24T22:18:43.224Z,5.30
2022-08-24T22:21:17.434Z,6.70
2022-08-24T22:23:45.214Z,5.50
2022-08-24T22:26:13.014Z,3.80
2022-08-24T22:28:42.527Z,3.30
2022-08-24T22:31:22.530Z,2.80
2022-08-24T22:33:51.154Z,2.10
2022-08-24T22:36:18.974Z,1.80
2022-08-24T22:38:47.581Z,1.40
2022-08-24T22:41:16.231Z,1.50
2022-08-24T22:44:03.093Z,2.10
2022-08-24T22:46:30.833Z,6.50
2022-08-24T22:48:59.905Z,2.80
2022-08-24T22:51:28.383Z,3.10
2022-08-24T22:53:56.772Z,2.40
2022-08-24T22:56:33.463Z,2.70
2022-08-24T22:59:06.168Z,2.00
2022-08-24T23:01:41.920Z,2.40
2022-08-24T23:04:15.579Z,2.40
2022-08-24T23:06:44.298Z,7.50
2022-08-24T23:09:12.145Z,5.60
2022-08-24T23:11:41.969Z,6.10
2022-08-24T23:14:12.542Z,2.10
2022-08-24T23:16:50.027Z,3.00
2022-08-24T23:19:46.227Z,3.10
2022-08-24T23:22:17.757Z,2.20
2022-08-24T23:24:48.073Z,2.00
2022-08-24T23:27:18.358Z,1.70
2022-08-24T23:29:49.440Z,1.90
2022-08-24T23:32:19.276Z,3.70
2022-08-24T23:34:49.126Z,4.50
2022-08-24T23:37:18.959Z,2.40
2022-08-24T23:39:46.691Z,1.70
2022-08-24T23:42:14.573Z,1.40
2022-08-24T23:44:42.400Z,1.50
2022-08-24T23:47:10.176Z,1.60
2022-08-24T23:49:39.892Z,1.50
2022-08-24T23:52:08.232Z,1.60
2022-08-24T23:54:40.127Z,1.60
2022-08-24T23:57:08.787Z,1.50
2022-08-24T23:59:36.786Z,1.70
